Time;durP1;ratioP1;P1;durP2;ratioP2;P2;SDS_P1;SDS_P2;PMS_P1;PMS_P2;Temp;Humidity;BMP_temperature;BMP_pressure;BME280_temperature;BME280_humidity;BME280_pressure;Samples;Min_cycle;Max_cycle;Signal;HPM_P1;HPM_P2
2023/04/06 00:00:33;;;;;;;0.97;0.60;;;;;;;1.24;88.84;100566.25;5012217;28;21096;-53
2023/04/06 00:02:59;;;;;;;2.43;2.33;;;;;;;1.23;89.56;100568.81;5012469;28;20958;-52
2023/04/06 00:05:27;;;;;;;2.60;1.10;;;;;;;1.21;88.54;100565.31;5012723;28;20467;-52
2023/04/06 00:07:55;;;;;;;1.30;1.30;;;;;;;1.22;88.53;100567.06;5012361;28;20476;-53
2023/04/06 00:10:22;;;;;;;1.10;1.00;;;;;;;1.05;89.00;100564.22;5012055;28;20835;-54
2023/04/06 00:12:48;;;;;;;1.27;1.17;;;;;;;1.13;89.32;100557.38;5005297;28;20456;-52
2023/04/06 00:15:15;;;;;;;2.70;1.57;;;;;;;1.20;88.83;100561.81;5012184;28;20460;-53
2023/04/06 00:17:41;;;;;;;0.67;0.40;;;;;;;1.13;89.91;100558.25;5012089;28;21033;-53
2023/04/06 00:20:08;;;;;;;1.87;1.30;;;;;;;1.28;88.49;100562.81;5011915;28;20611;-52
2023/04/06 00:22:35;;;;;;;1.73;1.63;;;;;;;1.10;89.01;100555.59;5012007;28;20452;-52
2023/04/06 00:25:02;;;;;;;0.80;0.80;;;;;;;1.05;89.71;100552.00;5011828;28;20456;-52
2023/04/06 00:27:28;;;;;;;4.73;1.67;;;;;;;1.10;88.69;100559.94;5011868;28;20551;-52
2023/04/06 00:29:55;;;;;;;1.13;1.03;;;;;;;1.07;88.93;100558.13;5012102;28;20448;-55
2023/04/06 00:32:21;;;;;;;1.00;1.00;;;;;;;0.99;89.34;100553.69;5011997;28;20455;-52
2023/04/06 00:34:48;;;;;;;2.97;2.87;;;;;;;0.79;90.48;100548.13;5005821;28;20460;-52
2023/04/06 00:37:14;;;;;;;3.90;1.53;;;;;;;0.78;90.14;100555.09;5004795;28;20587;-52
2023/04/06 00:39:41;;;;;;;2.87;2.30;;;;;;;0.80;90.22;100542.03;5011584;28;20869;-51
2023/04/06 00:42:12;;;;;;;8.00;1.93;;;;;;;0.88;89.94;100543.03;5000631;28;20465;-53
2023/04/06 00:44:40;;;;;;;0.60;0.60;;;;;;;0.87;89.74;100533.44;5011867;28;20457;-53
2023/04/06 00:47:07;;;;;;;5.73;2.23;;;;;;;0.92;89.56;100537.00;5011534;28;20484;-51
2023/04/06 00:49:34;;;;;;;0.90;0.90;;;;;;;0.88;89.66;100535.19;5012135;28;20463;-51
2023/04/06 00:52:01;;;;;;;1.00;1.00;;;;;;;0.85;89.53;100536.03;5011319;28;20870;-52
2023/04/06 00:54:30;;;;;;;2.67;0.83;;;;;;;0.55;90.15;100538.19;5011658;28;20456;-52
2023/04/06 00:56:57;;;;;;;0.80;0.60;;;;;;;0.60;91.00;100533.91;5010868;28;20476;-51
2023/04/06 00:59:23;;;;;;;0.63;0.63;;;;;;;0.71;90.30;100534.06;5011360;28;20492;-52
2023/04/06 01:01:50;;;;;;;0.87;0.87;;;;;;;0.61;89.33;100530.44;5011502;28;20457;-54
2023/04/06 01:04:16;;;;;;;0.60;0.60;;;;;;;0.61;90.55;100533.03;5011360;28;20950;-52
2023/04/06 01:06:43;;;;;;;1.30;1.30;;;;;;;0.49;90.83;100525.88;5011289;28;20484;-52
2023/04/06 01:09:09;;;;;;;1.27;0.70;;;;;;;0.58;90.92;100527.78;5011534;28;20459;-51
2023/04/06 01:11:36;;;;;;;1.40;1.30;;;;;;;0.33;90.88;100530.84;5003664;28;20492;-52
2023/04/06 01:14:03;;;;;;;0.50;0.47;;;;;;;0.40;90.91;100525.72;5011219;28;20841;-53
2023/04/06 01:16:30;;;;;;;7.60;1.70;;;;;;;0.42;91.72;100525.78;5010225;28;20902;-53
2023/04/06 01:18:56;;;;;;;1.00;0.63;;;;;;;0.36;91.58;100520.44;5011174;28;20507;-53
2023/04/06 01:21:23;;;;;;;0.53;0.53;;;;;;;0.46;91.69;100525.84;5010796;28;21022;-52
2023/04/06 01:23:49;;;;;;;1.80;1.70;;;;;;;0.37;91.37;100520.47;5011203;28;20456;-54
2023/04/06 01:26:16;;;;;;;1.87;1.77;;;;;;;0.40;90.48;100520.50;5010561;28;20583;-51
2023/04/06 01:28:44;;;;;;;3.67;0.83;;;;;;;0.31;90.92;100517.75;5010805;28;20456;-53
2023/04/06 01:31:11;;;;;;;4.93;1.10;;;;;;;0.31;91.04;100512.53;5010856;28;20880;-52
2023/04/06 01:33:38;;;;;;;1.03;1.03;;;;;;;0.35;90.32;100514.31;5010771;28;20457;-51
2023/04/06 01:36:05;;;;;;;0.60;0.60;;;;;;;0.25;90.29;100513.28;4998323;28;20507;-52
2023/04/06 01:38:31;;;;;;;5.43;1.80;;;;;;;0.16;91.38;100509.66;5010982;28;20453;-52
2023/04/06 01:40:58;;;;;;;0.77;0.77;;;;;;;0.03;91.20;100512.91;5008359;28;20503;-52
2023/04/06 01:43:24;;;;;;;0.33;0.33;;;;;;;0.10;91.75;100510.41;5001246;28;20715;-54
2023/04/06 01:45:51;;;;;;;5.53;1.33;;;;;;;0.10;91.90;100512.16;5010429;28;20834;-52
2023/04/06 01:48:17;;;;;;;0.40;0.40;;;;;;;0.23;90.96;100512.38;5010496;28;20464;-52
2023/04/06 01:50:44;;;;;;;1.07;1.07;;;;;;;0.08;91.20;100509.53;5010540;28;20476;-53
2023/04/06 01:53:10;;;;;;;1.33;1.33;;;;;;;0.00;91.71;100505.91;5010657;28;20511;-53
2023/04/06 01:55:37;;;;;;;2.37;1.50;;;;;;;0.02;91.87;100505.94;5010361;28;20452;-52
2023/04/06 01:58:03;;;;;;;0.30;0.30;;;;;;;0.16;92.51;100499.22;5010303;28;20456;-53
2023/04/06 02:00:30;;;;;;;1.17;1.17;;;;;;;0.11;92.31;100504.34;5010114;28;20519;-53
2023/04/06 02:02:56;;;;;;;1.17;0.87;;;;;;;0.00;92.46;100503.31;5009970;28;21016;-53
2023/04/06 02:05:23;;;;;;;0.40;0.40;;;;;;;-0.06;91.94;100495.34;5010305;28;20518;-53
2023/04/06 02:07:49;;;;;;;1.87;0.80;;;;;;;-0.04;92.97;100502.34;5009327;28;20468;-52
2023/04/06 02:10:16;;;;;;;1.23;1.13;;;;;;;-0.06;92.64;100503.19;5010152;28;20518;-53
2023/04/06 02:12:42;;;;;;;0.87;0.73;;;;;;;-0.05;92.29;100500.59;5002622;28;20588;-52
2023/04/06 02:15:09;;;;;;;1.07;1.07;;;;;;;-0.15;93.26;100501.28;5009988;28;20456;-54
2023/04/06 02:17:36;;;;;;;1.70;1.70;;;;;;;-0.08;93.17;100499.66;5010361;28;21225;-52
2023/04/06 02:20:02;;;;;;;0.50;0.50;;;;;;;-0.12;93.48;100495.25;5010010;28;21052;-53
2023/04/06 02:22:29;;;;;;;0.70;0.70;;;;;;;-0.04;92.84;100496.25;5009852;28;20874;-53
2023/04/06 02:24:55;;;;;;;1.17;1.07;;;;;;;-0.11;92.58;100494.38;5009802;28;20993;-52
2023/04/06 02:27:22;;;;;;;1.17;1.17;;;;;;;-0.31;93.39;100505.34;5009636;28;21008;-52
2023/04/06 02:29:48;;;;;;;2.13;2.03;;;;;;;-0.39;93.70;100488.66;5009502;28;20452;-53
2023/04/06 02:32:15;;;;;;;0.87;0.87;;;;;;;-0.35;93.58;100490.47;5009761;28;20461;-53
2023/04/06 02:34:41;;;;;;;3.33;1.60;;;;;;;-0.06;92.87;100491.00;5004300;28;20967;-54
2023/04/06 02:37:08;;;;;;;1.03;1.03;;;;;;;-0.08;92.86;100482.25;5001930;28;20476;-52
2023/04/06 02:39:34;;;;;;;0.63;0.63;;;;;;;-0.24;92.82;100495.03;5009660;28;20571;-51
2023/04/06 02:42:01;;;;;;;0.70;0.50;;;;;;;-0.18;92.33;100490.78;4998572;28;20981;-52
2023/04/06 02:44:27;;;;;;;0.93;0.93;;;;;;;-0.29;93.07;100492.31;5008300;28;20480;-54
2023/04/06 02:46:54;;;;;;;0.60;0.50;;;;;;;-0.21;92.76;100495.94;5009660;28;20986;-52
2023/04/06 02:49:20;;;;;;;3.20;2.93;;;;;;;-0.34;92.03;100494.84;5009540;28;20456;-53
2023/04/06 02:51:47;;;;;;;3.07;1.90;;;;;;;-0.50;92.38;100489.31;5009505;28;20873;-52
2023/04/06 02:54:14;;;;;;;1.53;1.43;;;;;;;-0.36;92.80;100485.22;5009294;28;20871;-53
2023/04/06 02:56:40;;;;;;;1.53;0.93;;;;;;;-0.28;92.41;100490.56;5009894;28;20901;-53
2023/04/06 02:59:07;;;;;;;1.00;1.00;;;;;;;-0.31;92.14;100484.44;5007742;28;20488;-52
2023/04/06 03:01:34;;;;;;;0.93;0.93;;;;;;;-0.41;92.30;100493.00;5009662;28;20846;-53
2023/04/06 03:04:00;;;;;;;1.40;1.00;;;;;;;-0.44;92.55;100489.41;5009357;28;20464;-53
2023/04/06 03:06:27;;;;;;;1.40;1.37;;;;;;;-0.34;91.61;100491.34;5009307;28;20472;-53
2023/04/06 03:08:53;;;;;;;0.50;0.50;;;;;;;-0.42;91.68;100492.94;5009189;28;20512;-53
2023/04/06 03:11:20;;;;;;;0.63;0.63;;;;;;;-0.42;92.31;100485.97;5001808;28;21010;-53
2023/04/06 03:13:47;;;;;;;1.33;0.70;;;;;;;-0.56;92.30;100477.00;5008971;28;20456;-52
2023/04/06 03:16:13;;;;;;;29.33;4.00;;;;;;;-0.53;92.69;100486.66;5009278;28;20571;-53
2023/04/06 03:18:40;;;;;;;1.70;0.93;;;;;;;-0.58;92.49;100489.16;5009151;28;20458;-52
2023/04/06 03:21:06;;;;;;;0.20;0.20;;;;;;;-0.43;93.08;100489.44;5009064;28;20491;-52
2023/04/06 03:23:33;;;;;;;0.50;0.50;;;;;;;-0.55;92.86;100485.72;5009068;28;20518;-52
2023/04/06 03:26:01;;;;;;;0.63;0.40;;;;;;;-0.62;92.13;100484.72;5008725;28;21032;-52
2023/04/06 03:28:28;;;;;;;0.40;0.33;;;;;;;-0.59;92.63;100482.16;5009319;28;20452;-52
2023/04/06 03:30:54;;;;;;;0.40;0.40;;;;;;;-0.46;92.33;100488.50;5009082;28;20578;-52
2023/04/06 03:33:21;;;;;;;4.70;2.23;;;;;;;-0.38;92.12;100486.94;5008934;28;20453;-54
2023/04/06 03:35:47;;;;;;;0.50;0.50;;;;;;;-0.50;91.91;100492.81;4996159;28;20453;-52
2023/04/06 03:38:14;;;;;;;1.60;1.50;;;;;;;-0.42;91.26;100501.63;5010034;28;20467;-53
2023/04/06 03:40:41;;;;;;;0.30;0.30;;;;;;;-0.41;92.11;100495.59;5008493;28;20530;-54
2023/04/06 03:43:07;;;;;;;0.30;0.30;;;;;;;-0.45;92.01;100500.72;4998528;28;20912;-53
2023/04/06 03:45:34;;;;;;;1.30;1.30;;;;;;;-0.54;92.56;100504.03;5008888;28;20475;-53
2023/04/06 03:48:00;;;;;;;0.47;0.40;;;;;;;-0.62;92.83;100495.16;5007741;28;20456;-53
2023/04/06 03:50:27;;;;;;;2.33;0.70;;;;;;;-0.64;93.00;100495.13;5008741;28;20973;-52
2023/04/06 03:52:53;;;;;;;3.57;3.30;;;;;;;-0.49;92.55;100497.16;5008925;28;20456;-53
2023/04/06 03:55:20;;;;;;;1.10;1.00;;;;;;;-0.52;93.45;100497.13;5009244;28;20482;-53
2023/04/06 03:57:46;;;;;;;1.27;1.27;;;;;;;-0.69;93.02;100496.75;5008922;28;20476;-53
2023/04/06 04:00:13;;;;;;;1.47;1.43;;;;;;;-0.68;93.08;100505.50;5008984;28;20539;-53
2023/04/06 04:02:40;;;;;;;1.20;1.10;;;;;;;-0.66;92.31;100509.03;5009137;28;20452;-53
2023/04/06 04:05:07;;;;;;;3.50;2.10;;;;;;;-0.75;92.07;100501.88;5010222;28;20535;-53
2023/04/06 04:07:33;;;;;;;1.90;1.80;;;;;;;-0.87;93.63;100504.22;5009347;28;20540;-54
2023/04/06 04:10:00;;;;;;;0.83;0.67;;;;;;;-0.82;93.03;100507.84;5008656;28;20503;-52
2023/04/06 04:12:26;;;;;;;0.83;0.83;;;;;;;-0.76;93.06;100515.78;5001720;28;20459;-53
2023/04/06 04:14:52;;;;;;;1.30;0.67;;;;;;;-0.77;93.14;100519.22;5008584;28;20465;-52
2023/04/06 04:17:19;;;;;;;0.60;0.60;;;;;;;-0.82;93.36;100519.97;5008690;28;20477;-54
2023/04/06 04:19:46;;;;;;;0.93;0.67;;;;;;;-0.94;93.69;100515.41;5008614;28;20461;-53
2023/04/06 04:22:12;;;;;;;1.17;1.17;;;;;;;-0.85;94.06;100518.19;5008364;28;20984;-54
2023/04/06 04:24:39;;;;;;;0.50;0.50;;;;;;;-0.77;94.19;100520.97;5008402;28;20452;-54
2023/04/06 04:27:05;;;;;;;0.37;0.37;;;;;;;-0.98;93.24;100524.88;5008405;28;20494;-52
2023/04/06 04:29:32;;;;;;;1.23;0.93;;;;;;;-0.94;93.76;100523.22;5006110;28;20472;-53
2023/04/06 04:31:58;;;;;;;1.97;1.87;;;;;;;-0.98;93.35;100522.25;5002392;28;20535;-52
2023/04/06 04:34:25;;;;;;;0.87;0.87;;;;;;;-0.30;93.38;100522.75;5009147;28;20449;-52
2023/04/06 04:36:52;;;;;;;1.10;0.83;;;;;;;-0.31;90.52;100525.34;5002185;28;20473;-53
2023/04/06 04:39:19;;;;;;;0.90;0.73;;;;;;;-0.79;91.81;100527.88;5012090;28;20452;-53
2023/04/06 04:41:45;;;;;;;0.30;0.20;;;;;;;-0.85;92.49;100530.34;5003393;28;20497;-53
2023/04/06 04:44:12;;;;;;;1.47;1.47;;;;;;;-0.86;92.60;100533.81;5008379;28;20463;-54
2023/04/06 04:46:39;;;;;;;0.67;0.67;;;;;;;-0.91;92.32;100529.38;5011776;28;20472;-52
2023/04/06 04:49:05;;;;;;;0.40;0.40;;;;;;;-0.98;92.93;100523.97;5011466;28;20463;-53
2023/04/06 04:51:32;;;;;;;1.70;1.60;;;;;;;-0.79;93.08;100523.53;5011601;28;20452;-53
2023/04/06 04:53:59;;;;;;;0.70;0.70;;;;;;;-0.77;93.12;100526.19;5011497;28;20457;-54
2023/04/06 04:56:27;;;;;;;0.43;0.43;;;;;;;-0.86;93.45;100529.47;5011594;28;20559;-54
2023/04/06 04:58:53;;;;;;;0.77;0.40;;;;;;;-0.80;93.33;100529.63;5011135;28;20449;-54
2023/04/06 05:01:20;;;;;;;1.00;1.00;;;;;;;-0.86;93.36;100529.47;5011269;28;21091;-52
2023/04/06 05:03:47;;;;;;;0.33;0.30;;;;;;;-0.99;93.92;100530.03;5011307;28;20487;-53
2023/04/06 05:06:13;;;;;;;1.27;1.17;;;;;;;-0.94;93.36;100521.50;5011352;28;21073;-54
2023/04/06 05:08:41;;;;;;;1.03;1.03;;;;;;;-0.85;93.10;100530.34;5011070;28;20453;-53
2023/04/06 05:11:08;;;;;;;1.07;1.07;;;;;;;-0.88;93.45;100527.69;5006072;28;20503;-52
2023/04/06 05:13:34;;;;;;;0.77;0.77;;;;;;;-0.80;93.77;100520.91;5008740;28;20456;-52
2023/04/06 05:16:01;;;;;;;1.00;0.50;;;;;;;-0.73;93.17;100538.44;5011116;28;20472;-53
2023/04/06 05:18:27;;;;;;;1.43;1.30;;;;;;;-0.54;92.87;100529.28;5010954;28;20991;-53
2023/04/06 05:20:54;;;;;;;1.27;0.80;;;;;;;-0.20;91.87;100530.78;5010747;28;20543;-54
2023/04/06 05:23:20;;;;;;;0.40;0.40;;;;;;;0.37;90.28;100528.31;5011029;28;20456;-52
2023/04/06 05:25:47;;;;;;;0.37;0.37;;;;;;;0.58;88.18;100536.50;5010975;28;20460;-52
2023/04/06 05:28:15;;;;;;;1.03;1.00;;;;;;;0.79;87.57;100533.31;5010867;28;20459;-53
2023/04/06 05:30:43;;;;;;;3.57;1.03;;;;;;;0.75;88.33;100536.75;5011316;28;20448;-55
2023/04/06 05:33:10;;;;;;;0.70;0.70;;;;;;;1.01;86.76;100531.03;5010487;28;20646;-53
2023/04/06 05:35:37;;;;;;;0.87;0.87;;;;;;;1.04;86.51;100533.66;4998363;28;20460;-53
2023/04/06 05:38:05;;;;;;;0.47;0.47;;;;;;;1.14;86.94;100540.81;5010573;28;20572;-54
2023/04/06 05:40:32;;;;;;;0.53;0.53;;;;;;;1.22;86.41;100541.75;5009775;28;20516;-54
2023/04/06 05:42:58;;;;;;;1.17;1.13;;;;;;;1.41;86.95;100529.81;4984797;28;20495;-55
2023/04/06 05:45:25;;;;;;;3.20;1.00;;;;;;;1.69;85.56;100536.25;5010523;28;20456;-54
2023/04/06 05:47:51;;;;;;;0.97;0.97;;;;;;;1.67;85.52;100537.97;4983016;28;20476;-54
2023/04/06 05:50:18;;;;;;;1.07;1.07;;;;;;;1.62;85.91;100535.28;5010307;28;20950;-54
2023/04/06 05:52:46;;;;;;;1.23;1.13;;;;;;;1.61;85.18;100541.38;5010964;28;20461;-54
2023/04/06 05:55:12;;;;;;;0.60;0.60;;;;;;;1.42;87.02;100535.06;5010454;28;20656;-54
2023/04/06 05:57:39;;;;;;;1.00;1.00;;;;;;;1.36;87.63;100534.97;5010296;28;20559;-55
2023/04/06 06:00:08;;;;;;;2.07;1.43;;;;;;;1.41;87.65;100532.41;5010263;28;20455;-54
2023/04/06 06:02:35;;;;;;;0.67;0.67;;;;;;;1.41;88.96;100541.16;5010674;28;21013;-54
2023/04/06 06:05:02;;;;;;;1.40;1.40;;;;;;;1.72;89.03;100539.75;5010330;28;20813;-54
2023/04/06 06:07:33;;;;;;;5.60;1.33;;;;;;;1.68;89.95;100539.72;5010436;28;20477;-54
2023/04/06 06:09:59;;;;;;;0.83;0.83;;;;;;;1.74;89.27;100537.16;5010063;28;20459;-53
2023/04/06 06:12:26;;;;;;;3.23;1.50;;;;;;;1.75;88.83;100539.78;5002920;28;20854;-55
2023/04/06 06:14:52;;;;;;;1.27;1.00;;;;;;;1.69;88.05;100536.25;5009764;28;20464;-54
2023/04/06 06:17:19;;;;;;;1.43;1.33;;;;;;;1.49;89.59;100543.84;5010272;28;20559;-55
2023/04/06 06:19:45;;;;;;;4.43;1.90;;;;;;;1.64;87.88;100541.41;4994630;28;20461;-55
2023/04/06 06:22:12;;;;;;;3.50;1.43;;;;;;;1.63;88.36;100539.66;5009996;28;20844;-54
2023/04/06 06:24:38;;;;;;;1.83;1.20;;;;;;;1.60;88.85;100543.97;5010264;28;20463;-53
2023/04/06 06:27:04;;;;;;;5.70;2.47;;;;;;;1.78;87.86;100536.31;5009898;28;20908;-54
2023/04/06 06:29:31;;;;;;;1.77;0.90;;;;;;;1.75;89.30;100539.78;5009422;28;20622;-53
2023/04/06 06:31:57;;;;;;;1.23;1.07;;;;;;;1.83;89.08;100542.50;5010049;28;20449;-53
2023/04/06 06:34:25;;;;;;;0.97;0.97;;;;;;;2.02;87.84;100544.44;5006904;28;20579;-54
2023/04/06 06:36:51;;;;;;;2.10;1.60;;;;;;;2.05;87.68;100540.97;4999786;28;20905;-53
2023/04/06 06:39:18;;;;;;;1.27;1.27;;;;;;;1.94;87.78;100546.13;5009616;28;21044;-53
2023/04/06 06:41:44;;;;;;;4.90;2.10;;;;;;;2.21;87.79;100540.28;5001104;28;20573;-55
2023/04/06 06:44:11;;;;;;;1.07;1.00;;;;;;;2.16;88.14;100544.59;5006235;28;20942;-54
2023/04/06 06:46:37;;;;;;;2.07;1.80;;;;;;;2.67;86.71;100544.16;5009855;28;20473;-54
2023/04/06 06:49:04;;;;;;;2.97;1.90;;;;;;;2.62;85.51;100545.00;5009798;28;20456;-54
2023/04/06 06:51:30;;;;;;;1.27;1.27;;;;;;;2.46;87.23;100548.34;5009666;28;20444;-54
2023/04/06 06:53:57;;;;;;;1.77;1.67;;;;;;;2.88;86.56;100551.31;5009183;28;20467;-54
2023/04/06 06:56:23;;;;;;;0.83;0.83;;;;;;;3.06;86.67;100549.66;5009535;28;20555;-55
2023/04/06 06:58:50;;;;;;;2.50;1.17;;;;;;;2.78;86.81;100546.84;5009120;28;20460;-55
2023/04/06 07:01:17;;;;;;;4.03;2.00;;;;;;;3.49;86.04;100541.13;5009620;28;20550;-54
2023/04/06 07:03:44;;;;;;;1.87;1.27;;;;;;;3.22;85.97;100539.25;5009263;28;20492;-54
2023/04/06 07:06:10;;;;;;;1.90;1.80;;;;;;;2.97;87.57;100539.97;5009405;28;20468;-55
2023/04/06 07:08:37;;;;;;;2.30;2.10;;;;;;;3.17;85.74;100543.59;5009283;28;20540;-55
2023/04/06 07:11:04;;;;;;;1.03;1.03;;;;;;;3.31;86.85;100532.28;5004117;28;20786;-54
2023/04/06 07:13:30;;;;;;;2.10;1.37;;;;;;;3.07;86.81;100533.91;5007240;28;20452;-54
2023/04/06 07:15:56;;;;;;;0.90;0.90;;;;;;;3.20;86.09;100537.47;5009288;28;20476;-55
2023/04/06 07:18:23;;;;;;;0.60;0.60;;;;;;;3.04;87.44;100536.53;5009228;28;20453;-54
2023/04/06 07:20:49;;;;;;;2.47;1.83;;;;;;;3.43;87.17;100537.59;5009399;28;20977;-53
2023/04/06 07:23:16;;;;;;;1.90;1.80;;;;;;;3.64;84.42;100537.66;5009396;28;20965;-54
2023/04/06 07:25:42;;;;;;;1.37;0.43;;;;;;;3.33;86.28;100538.44;5008879;28;20527;-54
2023/04/06 07:28:09;;;;;;;4.00;1.70;;;;;;;3.62;86.08;100542.03;5009307;28;20459;-55
2023/04/06 07:30:37;;;;;;;0.70;0.53;;;;;;;3.78;84.59;100537.72;5009206;28;20484;-53
2023/04/06 07:33:04;;;;;;;4.70;2.53;;;;;;;4.00;85.06;100536.03;5009411;28;20575;-54
2023/04/06 07:35:30;;;;;;;4.10;1.23;;;;;;;4.29;83.92;100530.81;4997180;28;20955;-54
2023/04/06 07:37:57;;;;;;;1.13;1.13;;;;;;;4.03;84.53;100531.66;5007968;28;20473;-53
2023/04/06 07:40:25;;;;;;;1.80;1.70;;;;;;;4.22;83.08;100529.91;5008846;28;20539;-54
2023/04/06 07:42:52;;;;;;;2.20;1.23;;;;;;;4.37;81.34;100531.66;4997126;28;20496;-52
2023/04/06 07:45:21;;;;;;;0.83;0.83;;;;;;;4.68;80.22;100524.66;5009098;28;20488;-55
2023/04/06 07:47:48;;;;;;;0.77;0.77;;;;;;;4.84;78.98;100518.50;5008710;28;20993;-55
2023/04/06 07:50:14;;;;;;;6.30;1.40;;;;;;;4.94;78.67;100524.63;5008799;28;21004;-54
2023/04/06 07:52:41;;;;;;;1.63;1.53;;;;;;;4.99;78.65;100525.50;5008747;28;20568;-55
2023/04/06 07:55:08;;;;;;;2.20;1.83;;;;;;;5.26;78.14;100519.25;5008773;28;20456;-54
2023/04/06 07:57:34;;;;;;;2.63;1.33;;;;;;;4.97;77.92;100527.25;5008770;28;20479;-54
2023/04/06 08:00:01;;;;;;;0.90;0.90;;;;;;;5.25;76.98;100525.41;5008902;28;20459;-54
2023/04/06 08:02:27;;;;;;;1.50;1.37;;;;;;;5.28;76.89;100513.09;4982857;28;20496;-54
2023/04/06 08:04:54;;;;;;;3.97;1.83;;;;;;;5.67;76.48;100520.84;5008927;28;20453;-54
2023/04/06 08:07:21;;;;;;;1.10;0.83;;;;;;;5.88;75.53;100513.69;4986121;28;20480;-54
2023/04/06 08:09:47;;;;;;;4.70;2.10;;;;;;;6.02;73.89;100520.66;5012567;28;20555;-53
2023/04/06 08:12:14;;;;;;;2.20;2.10;;;;;;;6.23;72.89;100513.50;5004492;28;20827;-55
2023/04/06 08:14:40;;;;;;;2.23;2.13;;;;;;;6.54;68.53;100524.69;5012265;28;20452;-56
2023/04/06 08:17:07;;;;;;;1.87;1.77;;;;;;;6.48;67.13;100524.75;5012301;28;21060;-55
2023/04/06 08:19:34;;;;;;;1.93;1.83;;;;;;;6.38;65.46;100517.78;5012113;28;20828;-55
2023/04/06 08:22:00;;;;;;;4.20;1.40;;;;;;;6.48;65.09;100515.94;5012201;28;20500;-55
2023/04/06 08:24:27;;;;;;;17.87;2.30;;;;;;;6.61;66.07;100514.09;5012323;28;20458;-55
2023/04/06 08:26:53;;;;;;;1.13;1.10;;;;;;;6.57;62.25;100521.13;5012000;28;20492;-55
2023/04/06 08:29:20;;;;;;;2.00;1.37;;;;;;;6.96;61.58;100516.38;5011935;28;20464;-54
2023/04/06 08:31:46;;;;;;;1.50;1.40;;;;;;;6.73;63.44;100520.13;5012236;28;20456;-55
2023/04/06 08:34:12;;;;;;;1.73;1.63;;;;;;;7.06;62.98;100518.91;5011287;28;20449;-55
2023/04/06 08:36:41;;;;;;;1.60;1.13;;;;;;;6.99;60.04;100519.88;4999999;28;20982;-54
2023/04/06 08:39:07;;;;;;;4.40;3.33;;;;;;;7.15;61.54;100523.25;5012044;28;20460;-55
2023/04/06 08:41:34;;;;;;;2.27;1.97;;;;;;;7.57;59.29;100518.34;5004420;28;21020;-55
2023/04/06 08:44:02;;;;;;;4.33;1.90;;;;;;;7.62;57.01;100516.50;5006636;28;20448;-53
2023/04/06 08:46:30;;;;;;;11.70;2.20;;;;;;;8.09;58.74;100518.50;5011742;28;20476;-53
2023/04/06 08:49:01;;;;;;;2.83;1.90;;;;;;;8.46;56.94;100516.16;5011545;28;20452;-53
2023/04/06 08:51:30;;;;;;;2.53;2.10;;;;;;;7.85;57.37;100524.13;5011718;28;20444;-53
2023/04/06 08:53:58;;;;;;;2.07;1.77;;;;;;;7.94;56.37;100508.09;5011744;28;20543;-52
2023/04/06 08:56:26;;;;;;;1.70;1.60;;;;;;;8.02;59.03;100511.53;5011682;28;20472;-53
2023/04/06 08:58:53;;;;;;;3.63;2.53;;;;;;;8.36;58.55;100513.69;5011450;28;20972;-54
2023/04/06 09:01:25;;;;;;;6.63;2.77;;;;;;;8.14;60.83;100510.47;5011349;28;20453;-53
2023/04/06 09:03:58;;;;;;;4.53;2.60;;;;;;;8.55;58.80;100507.19;5011432;28;20452;-54
2023/04/06 09:06:29;;;;;;;2.13;1.93;;;;;;;8.64;56.66;100503.53;5011428;28;20507;-54
2023/04/06 09:08:56;;;;;;;3.00;1.43;;;;;;;8.45;56.82;100501.16;5011303;28;20499;-53
2023/04/06 09:11:23;;;;;;;2.90;2.03;;;;;;;9.04;56.53;100493.06;5003597;28;20489;-53
2023/04/06 09:13:54;;;;;;;3.30;1.20;;;;;;;9.15;55.57;100491.06;5011277;28;20507;-53
2023/04/06 09:16:21;;;;;;;4.83;1.90;;;;;;;9.16;57.35;100499.00;5010640;28;20531;-54
2023/04/06 09:18:48;;;;;;;2.53;2.13;;;;;;;9.56;55.93;100492.88;5011299;28;20456;-55
2023/04/06 09:21:17;;;;;;;3.00;2.25;;;;;;;9.99;54.71;100495.47;5011136;28;20453;-54
2023/04/06 09:23:44;;;;;;;4.07;3.10;;;;;;;10.37;54.06;100497.25;5011086;28;20551;-52
2023/04/06 09:26:18;;;;;;;4.23;2.97;;;;;;;10.12;54.47;100496.06;5010922;28;20486;-54
2023/04/06 09:28:49;;;;;;;3.03;1.73;;;;;;;10.39;54.47;100491.91;5010942;28;20910;-54
2023/04/06 09:31:25;;;;;;;3.60;2.53;;;;;;;10.24;53.82;100494.94;5010836;28;20460;-53
2023/04/06 09:33:52;;;;;;;6.10;1.67;;;;;;;10.12;54.97;100482.78;5011085;28;20448;-54
2023/04/06 09:36:20;;;;;;;5.53;3.20;;;;;;;10.06;55.59;100485.59;4996220;28;20473;-54
2023/04/06 09:38:55;;;;;;;2.43;2.23;;;;;;;10.16;54.73;100484.47;5010749;28;20460;-54
2023/04/06 09:41:29;;;;;;;1.53;1.43;;;;;;;10.02;54.88;100487.44;5004830;28;20461;-54
2023/04/06 09:44:13;;;;;;;2.07;1.40;;;;;;;10.57;55.83;100474.66;5004842;28;20452;-54
2023/04/06 09:46:45;;;;;;;1.60;1.33;;;;;;;10.38;55.32;100471.56;5010614;28;20476;-55
2023/04/06 09:49:32;;;;;;;2.33;2.13;;;;;;;10.52;53.91;100474.75;5010405;28;20452;-54
2023/04/06 09:52:00;;;;;;;4.53;3.77;;;;;;;11.03;53.36;100473.41;5010396;28;20455;-54
2023/04/06 09:54:31;;;;;;;3.23;2.33;;;;;;;10.78;52.07;100463.44;5010472;28;20456;-54
2023/04/06 09:57:18;;;;;;;3.40;2.90;;;;;;;10.77;52.88;100466.13;5010245;28;20473;-54
2023/04/06 09:59:50;;;;;;;23.27;2.60;;;;;;;11.19;54.26;100470.28;5010494;28;20567;-54
2023/04/06 10:02:34;;;;;;;8.27;3.10;;;;;;;11.24;52.38;100467.50;5010198;28;20488;-54
2023/04/06 10:05:16;;;;;;;2.70;2.60;;;;;;;11.10;52.39;100459.00;5010377;28;20916;-55
2023/04/06 10:07:45;;;;;;;14.03;3.63;;;;;;;11.08;53.06;100460.84;5010448;28;20526;-54
2023/04/06 10:10:22;;;;;;;5.03;3.80;;;;;;;11.00;53.01;100461.06;5009964;28;20460;-54
2023/04/06 10:12:49;;;;;;;5.80;2.77;;;;;;;11.08;54.08;100455.53;5002397;28;20468;-54
2023/04/06 10:15:18;;;;;;;3.97;2.97;;;;;;;11.33;55.16;100453.91;5010426;28;20460;-54
2023/04/06 10:17:48;;;;;;;4.93;2.13;;;;;;;11.65;54.57;100452.09;5010247;28;20472;-54
2023/04/06 10:20:21;;;;;;;3.77;2.90;;;;;;;11.92;51.76;100450.38;5009998;28;21026;-55
2023/04/06 10:23:14;;;;;;;5.03;3.27;;;;;;;11.96;51.35;100442.28;5009720;28;20519;-55
2023/04/06 10:25:55;;;;;;;6.50;3.83;;;;;;;12.28;49.69;100437.69;5009917;28;20458;-54
2023/04/06 10:28:23;;;;;;;2.70;2.60;;;;;;;12.42;49.44;100443.44;5009302;28;20456;-54
2023/04/06 10:30:56;;;;;;;2.70;2.50;;;;;;;12.11;51.47;100433.78;5009704;28;20464;-55
2023/04/06 10:33:22;;;;;;;8.10;3.27;;;;;;;12.27;50.28;100435.94;5010279;28;20899;-55
2023/04/06 10:35:49;;;;;;;3.27;3.07;;;;;;;12.56;50.88;100438.50;4996788;28;20838;-54
2023/04/06 10:38:19;;;;;;;4.87;2.90;;;;;;;12.55;49.80;100436.75;5010038;28;21030;-54
2023/04/06 10:40:49;;;;;;;23.67;3.03;;;;;;;12.66;48.71;100426.59;5008907;28;20455;-55
2023/04/06 10:43:20;;;;;;;10.53;3.83;;;;;;;12.81;49.29;100432.31;4989429;28;20495;-55
2023/04/06 10:45:56;;;;;;;3.20;2.60;;;;;;;13.30;49.46;100428.78;5009120;28;20456;-54
2023/04/06 10:48:23;;;;;;;10.73;4.37;;;;;;;13.28;49.28;100423.47;5009880;28;20456;-54
2023/04/06 10:50:51;;;;;;;8.47;2.83;;;;;;;12.99;48.16;100419.16;5009692;28;20457;-54
2023/04/06 10:53:26;;;;;;;3.20;2.73;;;;;;;13.24;50.41;100420.97;5009743;28;20467;-54
2023/04/06 10:55:55;;;;;;;4.57;2.33;;;;;;;13.27;48.81;100419.06;5009397;28;20459;-54
2023/04/06 10:58:26;;;;;;;34.73;3.23;;;;;;;13.54;47.64;100410.91;5009282;28;20448;-54
2023/04/06 11:00:54;;;;;;;3.83;3.53;;;;;;;13.29;45.29;100409.22;4985387;28;20453;-55
2023/04/06 11:03:20;;;;;;;9.07;2.47;;;;;;;13.58;46.79;100408.09;5009469;28;20962;-55
2023/04/06 11:05:50;;;;;;;10.40;2.40;;;;;;;13.98;44.84;100400.25;5009763;28;20507;-55
2023/04/06 11:08:31;;;;;;;2.37;2.27;;;;;;;14.34;43.66;100392.53;5009660;28;20522;-54
2023/04/06 11:11:15;;;;;;;4.67;3.53;;;;;;;14.35;44.41;100391.59;5005019;28;20453;-55
2023/04/06 11:13:43;;;;;;;4.07;3.67;;;;;;;13.55;44.58;100391.28;5008731;28;20485;-54
2023/04/06 11:16:18;;;;;;;2.90;2.70;;;;;;;13.71;45.42;100386.25;5009267;28;20473;-55
2023/04/06 11:19:00;;;;;;;3.57;2.80;;;;;;;13.84;44.67;100388.38;4985088;28;20448;-55
2023/04/06 11:21:47;;;;;;;9.17;3.93;;;;;;;14.03;42.55;100384.94;5009273;28;20452;-55
2023/04/06 11:24:16;;;;;;;1.87;1.77;;;;;;;14.43;40.18;100381.44;5009220;28;20460;-55
2023/04/06 11:26:50;;;;;;;2.00;1.90;;;;;;;14.80;39.83;100378.94;5008848;28;21013;-55
2023/04/06 11:29:20;;;;;;;2.60;2.40;;;;;;;14.87;37.60;100370.63;5009184;28;20463;-55
2023/04/06 11:31:51;;;;;;;8.27;2.73;;;;;;;15.23;37.97;100368.09;5009703;28;20552;-54